Time;durP1;ratioP1;P1;durP2;ratioP2;P2;SDS_P1;SDS_P2;PMS_P1;PMS_P2;Temp;Humidity;BMP_temperature;BMP_pressure;BME280_temperature;BME280_humidity;BME280_pressure;Samples;Min_cycle;Max_cycle;Signal;HPM_P1;HPM_P2
2022/07/17 00:00:05;;;;;;;10.15;4.22;;;;;;;18.18;55.00;100356.09;345244;28;1254;-74
2022/07/17 00:00:18;;;;;;;11.73;4.30;;;;;;;18.18;55.11;100345.56;344001;28;1144;-75
2022/07/17 00:00:31;;;;;;;10.27;4.38;;;;;;;18.15;54.76;100346.59;343642;28;1027;-75
2022/07/17 00:00:43;;;;;;;10.70;4.60;;;;;;;18.18;54.79;100350.81;342605;28;2073;-75
2022/07/17 00:00:55;;;;;;;8.68;4.43;;;;;;;18.19;54.45;100349.03;344210;28;1990;-73
2022/07/17 00:01:07;;;;;;;7.93;4.50;;;;;;;18.19;54.32;100347.28;342079;28;1253;-73
2022/07/17 00:01:19;;;;;;;7.75;4.43;;;;;;;18.20;54.15;100343.69;342193;28;1040;-73
2022/07/17 00:01:32;;;;;;;7.95;4.30;;;;;;;18.21;54.13;100347.19;342238;28;1023;-74
2022/07/17 00:01:44;;;;;;;9.52;4.15;;;;;;;18.21;54.22;100350.69;343365;28;1450;-74
2022/07/17 00:01:56;;;;;;;8.93;4.28;;;;;;;18.20;54.46;100353.38;343508;28;1345;-74
2022/07/17 00:02:08;;;;;;;9.52;4.40;;;;;;;18.17;54.72;100349.16;343879;28;1299;-74
2022/07/17 00:02:20;;;;;;;8.07;4.45;;;;;;;18.16;54.90;100352.69;344351;28;1331;-74
2022/07/17 00:02:32;;;;;;;8.55;4.60;;;;;;;18.16;54.78;100350.06;345072;28;1112;-74
2022/07/17 00:02:47;;;;;;;8.20;4.45;;;;;;;18.14;55.14;100344.88;344531;28;1391;-74
2022/07/17 00:02:59;;;;;;;7.38;4.25;;;;;;;18.16;54.79;100344.81;344952;28;1195;-74
2022/07/17 00:03:13;;;;;;;8.20;4.15;;;;;;;18.16;55.02;100344.81;345063;28;1051;-74
2022/07/17 00:03:25;;;;;;;9.13;4.20;;;;;;;18.14;55.33;100346.66;344819;28;1167;-74
2022/07/17 00:03:37;;;;;;;11.35;4.20;;;;;;;18.11;55.65;100350.31;344628;28;1339;-74
2022/07/17 00:03:49;;;;;;;10.93;4.30;;;;;;;18.10;55.40;100340.72;344056;28;1861;-74
2022/07/17 00:04:02;;;;;;;7.25;4.22;;;;;;;18.11;55.51;100349.44;344399;28;1519;-73
2022/07/17 00:04:14;;;;;;;8.00;4.30;;;;;;;18.09;55.81;100351.31;342382;28;1099;-73
2022/07/17 00:04:27;;;;;;;6.75;4.05;;;;;;;18.10;55.49;100350.38;342043;28;1907;-73
2022/07/17 00:04:40;;;;;;;11.65;4.15;;;;;;;18.11;55.81;100349.44;341403;28;2231;-73
2022/07/17 00:04:52;;;;;;;10.57;4.00;;;;;;;18.09;55.77;100346.91;342495;28;1922;-74
2022/07/17 00:05:05;;;;;;;10.30;4.07;;;;;;;18.10;55.10;100348.59;342096;28;1330;-74
2022/07/17 00:05:18;;;;;;;8.32;4.45;;;;;;;18.10;55.27;100353.03;342303;28;1195;-74
2022/07/17 00:05:29;;;;;;;7.55;4.38;;;;;;;18.09;55.23;100352.19;342262;28;1084;-74
2022/07/17 00:05:43;;;;;;;8.18;4.32;;;;;;;18.08;55.86;100354.88;341696;28;2215;-75
2022/07/17 00:05:55;;;;;;;8.25;4.20;;;;;;;18.08;55.62;100354.88;343678;28;1829;-74
2022/07/17 00:06:07;;;;;;;9.32;4.32;;;;;;;18.08;55.84;100354.88;343644;28;1090;-74
2022/07/17 00:06:19;;;;;;;11.38;4.22;;;;;;;18.07;55.43;100347.91;343643;28;1309;-74
2022/07/17 00:06:31;;;;;;;11.30;4.18;;;;;;;18.09;55.31;100356.56;343360;28;1211;-74
2022/07/17 00:06:43;;;;;;;8.07;4.03;;;;;;;18.06;55.90;100356.75;343727;28;2223;-74
2022/07/17 00:06:55;;;;;;;6.90;4.07;;;;;;;18.08;56.02;100365.41;343770;28;1572;-75
2022/07/17 00:07:08;;;;;;;7.05;4.30;;;;;;;18.09;55.98;100354.81;343636;28;1272;-75
2022/07/17 00:07:20;;;;;;;6.35;4.35;;;;;;;18.09;55.23;100357.44;343616;28;1164;-74
2022/07/17 00:07:32;;;;;;;7.50;4.38;;;;;;;18.08;55.24;100360.13;343586;28;1111;-74
2022/07/17 00:07:46;;;;;;;8.70;4.20;;;;;;;18.06;55.61;100356.75;341882;28;2252;-74
2022/07/17 00:07:58;;;;;;;8.98;4.18;;;;;;;18.05;55.45;100349.75;343291;28;1204;-73
2022/07/17 00:08:12;;;;;;;6.97;4.00;;;;;;;18.05;55.41;100352.41;343715;28;1111;-73
2022/07/17 00:08:24;;;;;;;7.07;4.00;;;;;;;18.04;55.56;100354.19;343307;28;1044;-73
2022/07/17 00:08:37;;;;;;;7.60;3.95;;;;;;;18.04;55.54;100348.91;343311;28;2130;-73
2022/07/17 00:08:49;;;;;;;8.15;4.30;;;;;;;18.05;54.98;100349.75;342464;28;1294;-74
2022/07/17 00:09:02;;;;;;;7.20;4.40;;;;;;;18.06;55.18;100356.75;342262;28;2151;-74
2022/07/17 00:09:14;;;;;;;7.60;4.13;;;;;;;18.07;55.06;100351.41;342737;28;1316;-74
2022/07/17 00:09:26;;;;;;;7.65;3.90;;;;;;;18.05;55.46;100350.63;342377;28;2212;-74
2022/07/17 00:09:38;;;;;;;7.80;3.90;;;;;;;18.05;55.14;100357.66;342686;28;2101;-74
2022/07/17 00:09:50;;;;;;;7.22;4.18;;;;;;;18.05;54.96;100355.03;344315;28;1899;-74
2022/07/17 00:10:04;;;;;;;6.07;4.30;;;;;;;18.04;55.18;100358.59;343378;28;1374;-74
2022/07/17 00:10:17;;;;;;;5.80;4.13;;;;;;;18.03;55.18;100352.50;344233;28;1027;-74
2022/07/17 00:10:29;;;;;;;7.30;4.07;;;;;;;18.03;55.37;100357.75;343543;28;1075;-73
2022/07/17 00:10:42;;;;;;;7.13;4.05;;;;;;;18.02;55.50;100355.19;342668;28;2294;-73
2022/07/17 00:10:54;;;;;;;6.75;3.92;;;;;;;18.03;55.58;100356.88;344328;28;1695;-73
2022/07/17 00:11:07;;;;;;;7.57;4.00;;;;;;;18.01;55.34;100358.75;342378;28;1035;-74
2022/07/17 00:11:19;;;;;;;8.18;4.00;;;;;;;18.01;55.33;100353.50;343064;28;1857;-74
2022/07/17 00:11:32;;;;;;;8.45;3.88;;;;;;;18.02;55.25;100355.19;343771;28;1220;-74
2022/07/17 00:11:44;;;;;;;7.30;3.60;;;;;;;18.02;55.18;100355.19;343245;28;2295;-74
2022/07/17 00:11:56;;;;;;;7.15;3.63;;;;;;;18.03;55.26;100356.88;343952;28;1861;-74
2022/07/17 00:12:08;;;;;;;6.55;3.65;;;;;;;18.03;55.25;100356.88;344575;28;1229;-75
2022/07/17 00:12:20;;;;;;;6.07;3.70;;;;;;;18.03;54.84;100356.88;344271;28;1766;-75
2022/07/17 00:12:32;;;;;;;5.45;3.80;;;;;;;18.04;55.04;100358.59;343972;28;1079;-74
2022/07/17 00:12:44;;;;;;;5.75;3.90;;;;;;;18.04;55.04;100355.97;344286;28;2240;-74
2022/07/17 00:12:57;;;;;;;5.78;4.00;;;;;;;18.04;55.39;100354.19;345293;28;1942;-74
2022/07/17 00:13:09;;;;;;;5.97;3.97;;;;;;;18.04;54.96;100359.44;344791;28;1364;-74
2022/07/17 00:13:22;;;;;;;6.35;3.95;;;;;;;18.07;54.90;100354.03;344886;28;1023;-74
2022/07/17 00:13:34;;;;;;;6.35;3.88;;;;;;;18.10;55.36;100353.03;345552;28;1018;-74
2022/07/17 00:13:46;;;;;;;6.05;3.70;;;;;;;18.10;54.99;100363.53;343826;28;1817;-75
2022/07/17 00:13:58;;;;;;;5.47;3.60;;;;;;;18.12;54.41;100359.06;344926;28;1176;-74
2022/07/17 00:14:11;;;;;;;7.65;3.95;;;;;;;18.14;54.58;100359.81;343831;28;1134;-74
2022/07/17 00:14:23;;;;;;;7.55;4.18;;;;;;;18.12;54.86;100353.78;343590;28;1055;-74
2022/07/17 00:14:35;;;;;;;7.30;4.30;;;;;;;18.11;54.78;100354.69;343540;28;1148;-74
2022/07/17 00:14:47;;;;;;;6.88;4.07;;;;;;;18.11;54.78;100354.69;343768;28;1129;-74
2022/07/17 00:14:59;;;;;;;6.88;4.18;;;;;;;18.10;54.39;100358.28;343266;28;1284;-74
2022/07/17 00:15:12;;;;;;;5.85;3.92;;;;;;;18.09;54.44;100361.81;343810;28;1155;-74
2022/07/17 00:15:24;;;;;;;5.85;3.80;;;;;;;18.07;54.47;100353.16;343734;28;1150;-74
2022/07/17 00:15:36;;;;;;;7.88;3.90;;;;;;;18.07;54.56;100364.56;343614;28;2226;-75
2022/07/17 00:15:48;;;;;;;9.77;4.00;;;;;;;18.05;54.45;100358.53;343803;28;1569;-74
2022/07/17 00:16:01;;;;;;;9.65;4.00;;;;;;;18.05;54.50;100349.75;343552;28;1429;-75
2022/07/17 00:16:13;;;;;;;8.15;4.03;;;;;;;18.06;54.17;100362.00;344048;28;1039;-74
2022/07/17 00:16:26;;;;;;;6.53;4.07;;;;;;;18.04;54.90;100358.59;343577;28;1173;-74
2022/07/17 00:16:38;;;;;;;6.15;3.90;;;;;;;18.02;54.67;100353.41;343305;28;2073;-74
2022/07/17 00:16:51;;;;;;;5.30;3.80;;;;;;;18.05;54.76;100357.66;344324;28;1406;-74
2022/07/17 00:17:05;;;;;;;4.93;3.80;;;;;;;18.05;55.21;100360.28;343467;28;1328;-74
2022/07/17 00:17:17;;;;;;;7.10;3.92;;;;;;;18.04;55.22;100348.91;342577;28;1121;-74
2022/07/17 00:17:29;;;;;;;8.20;3.90;;;;;;;18.05;55.05;100352.41;343060;28;2115;-74
2022/07/17 00:17:41;;;;;;;6.68;3.85;;;;;;;18.04;54.80;100354.19;343440;28;1541;-74
2022/07/17 00:17:53;;;;;;;7.63;3.95;;;;;;;18.04;55.06;100354.19;343931;28;1715;-74
2022/07/17 00:18:07;;;;;;;7.07;3.92;;;;;;;18.02;55.02;100357.84;343443;28;1249;-74
2022/07/17 00:18:19;;;;;;;8.57;4.00;;;;;;;18.00;54.62;100357.06;343580;28;1040;-74
2022/07/17 00:18:31;;;;;;;10.05;3.90;;;;;;;18.01;54.92;100353.50;343658;28;1115;-74
2022/07/17 00:18:43;;;;;;;8.80;3.80;;;;;;;17.99;55.05;100355.34;343855;28;2144;-74
2022/07/17 00:18:55;;;;;;;6.68;3.80;;;;;;;17.99;55.08;100355.34;345565;28;1867;-74
2022/07/17 00:19:06;;;;;;;6.25;3.95;;;;;;;18.02;55.01;100352.56;345013;28;1059;-74
2022/07/17 00:19:20;;;;;;;8.60;3.90;;;;;;;18.01;54.98;100354.38;345007;28;1183;-74
2022/07/17 00:19:33;;;;;;;8.35;3.75;;;;;;;18.02;54.78;100355.19;345317;28;1090;-73
2022/07/17 00:19:45;;;;;;;6.60;3.60;;;;;;;18.03;54.86;100359.53;344493;28;2234;-73
2022/07/17 00:19:56;;;;;;;6.78;3.67;;;;;;;18.01;54.85;100359.63;345229;28;1636;-73
2022/07/17 00:20:11;;;;;;;7.63;3.85;;;;;;;18.01;54.96;100364.00;345133;28;1066;-74
2022/07/17 00:20:25;;;;;;;8.30;3.90;;;;;;;18.02;54.82;100360.47;344968;28;1207;-74
2022/07/17 00:20:37;;;;;;;7.05;3.92;;;;;;;18.03;54.83;100362.16;344830;28;2026;-76
2022/07/17 00:20:49;;;;;;;6.53;3.72;;;;;;;18.03;54.63;100356.88;345467;28;3459;-74
2022/07/17 00:21:01;;;;;;;5.82;3.67;;;;;;;18.03;54.89;100363.03;345124;28;1273;-74
2022/07/17 00:21:13;;;;;;;4.75;3.63;;;;;;;18.03;54.61;100356.88;343781;28;1303;-74
2022/07/17 00:21:26;;;;;;;4.95;3.70;;;;;;;18.01;55.24;100358.75;344032;28;1069;-73
2022/07/17 00:21:38;;;;;;;6.07;3.70;;;;;;;18.01;54.78;100359.63;343147;28;2214;-73
2022/07/17 00:21:50;;;;;;;7.63;3.75;;;;;;;18.02;54.99;100355.19;343009;28;1506;-73
2022/07/17 00:22:03;;;;;;;8.02;3.60;;;;;;;18.02;54.75;100355.19;343933;28;1290;-73
2022/07/17 00:22:16;;;;;;;8.73;3.63;;;;;;;18.02;55.22;100355.19;343814;28;1268;-73
2022/07/17 00:22:28;;;;;;;8.18;3.80;;;;;;;18.02;54.75;100357.84;342484;28;2103;-73
2022/07/17 00:22:42;;;;;;;6.38;3.97;;;;;;;18.02;54.60;100361.31;342120;28;1636;-73
2022/07/17 00:22:55;;;;;;;7.07;4.13;;;;;;;18.01;55.13;100361.38;341715;28;1253;-74
2022/07/17 00:23:07;;;;;;;7.78;4.07;;;;;;;18.02;55.02;100360.47;341966;28;1104;-74
2022/07/17 00:23:19;;;;;;;7.05;3.85;;;;;;;18.00;55.16;100357.06;342466;28;1669;-73
2022/07/17 00:23:32;;;;;;;9.85;3.90;;;;;;;17.97;55.12;100358.09;342348;28;1313;-73
2022/07/17 00:23:44;;;;;;;9.10;3.90;;;;;;;17.95;55.13;100362.56;342206;28;2060;-73
2022/07/17 00:23:56;;;;;;;8.48;3.85;;;;;;;17.93;54.96;100357.38;344265;28;2081;-73
2022/07/17 00:24:08;;;;;;;9.07;3.72;;;;;;;17.92;54.55;100355.66;343491;28;1278;-74
2022/07/17 00:24:20;;;;;;;10.10;3.95;;;;;;;17.91;54.73;100355.78;343805;28;1067;-74
2022/07/17 00:24:32;;;;;;;9.40;3.88;;;;;;;17.90;55.11;100357.53;343938;28;1240;-74
2022/07/17 00:24:45;;;;;;;6.95;3.67;;;;;;;17.90;55.34;100361.94;343855;28;2214;-75
2022/07/17 00:24:57;;;;;;;7.15;3.67;;;;;;;17.90;55.38;100360.16;345980;28;1691;-75
2022/07/17 00:25:10;;;;;;;5.45;3.80;;;;;;;17.90;55.85;100354.91;344862;28;1202;-75
2022/07/17 00:25:22;;;;;;;6.00;3.92;;;;;;;17.90;55.21;100351.44;345074;28;1200;-74
2022/07/17 00:25:34;;;;;;;5.78;4.10;;;;;;;17.89;55.62;100355.84;344891;28;1079;-75
2022/07/17 00:25:46;;;;;;;5.47;4.00;;;;;;;17.88;55.26;100359.38;344744;28;1453;-74
2022/07/17 00:25:58;;;;;;;5.22;4.05;;;;;;;17.88;55.65;100359.38;344823;28;1245;-74
2022/07/17 00:26:10;;;;;;;6.80;3.90;;;;;;;17.89;55.65;100361.09;345148;28;1206;-75
2022/07/17 00:26:23;;;;;;;6.53;3.67;;;;;;;17.88;55.57;100356.75;345056;28;1898;-75
2022/07/17 00:26:35;;;;;;;6.30;3.63;;;;;;;17.87;55.40;100352.44;345360;28;1071;-75
2022/07/17 00:26:49;;;;;;;5.80;3.85;;;;;;;17.84;55.36;100355.22;345152;28;1581;-75
2022/07/17 00:27:01;;;;;;;5.95;3.88;;;;;;;17.81;55.93;100358.00;344591;28;1287;-75
2022/07/17 00:27:14;;;;;;;6.38;3.75;;;;;;;17.84;55.93;100357.84;345033;28;1232;-75
2022/07/17 00:27:26;;;;;;;8.43;4.13;;;;;;;17.82;55.41;100354.41;343879;28;1057;-75
2022/07/17 00:27:39;;;;;;;7.85;4.30;;;;;;;17.86;55.29;100350.72;344272;28;1675;-75
2022/07/17 00:27:51;;;;;;;7.32;4.25;;;;;;;17.85;55.15;100349.03;344839;28;1305;-75
2022/07/17 00:28:03;;;;;;;6.35;4.00;;;;;;;17.88;55.46;100356.75;344847;28;1308;-74
2022/07/17 00:28:15;;;;;;;5.53;3.80;;;;;;;17.89;55.42;100358.47;344852;28;1071;-74
2022/07/17 00:28:28;;;;;;;5.78;3.75;;;;;;;17.90;55.64;100362.78;344971;28;1142;-74
2022/07/17 00:28:41;;;;;;;6.75;4.05;;;;;;;17.92;55.78;100358.31;343731;28;1370;-76
2022/07/17 00:28:53;;;;;;;7.25;3.95;;;;;;;17.90;55.48;100362.78;343718;28;1079;-75
2022/07/17 00:29:05;;;;;;;7.05;3.85;;;;;;;17.90;55.32;100354.91;343271;28;1512;-74
2022/07/17 00:29:18;;;;;;;7.80;3.95;;;;;;;17.90;55.24;100354.91;343655;28;1186;-74
2022/07/17 00:29:30;;;;;;;9.05;4.00;;;;;;;17.87;55.28;100357.72;343308;28;1276;-74
2022/07/17 00:29:42;;;;;;;8.57;3.90;;;;;;;17.85;55.86;100362.19;343825;28;1126;-74
2022/07/17 00:29:55;;;;;;;12.02;4.03;;;;;;;17.85;55.73;100361.31;344046;28;1323;-73
2022/07/17 00:30:07;;;;;;;9.73;4.00;;;;;;;17.84;55.97;100355.22;343683;28;1153;-73
2022/07/17 00:30:21;;;;;;;9.90;4.15;;;;;;;17.83;55.82;100356.16;343147;28;1098;-73
2022/07/17 00:30:33;;;;;;;7.03;4.32;;;;;;;17.83;55.73;100356.16;343816;28;1100;-75
2022/07/17 00:30:46;;;;;;;8.55;4.50;;;;;;;17.84;55.38;100357.84;343656;28;1062;-74
2022/07/17 00:30:59;;;;;;;8.40;4.50;;;;;;;17.81;55.95;100358.00;343566;28;1324;-75
2022/07/17 00:31:11;;;;;;;10.63;4.60;;;;;;;17.82;55.51;100354.41;343344;28;1193;-73
2022/07/17 00:31:23;;;;;;;8.88;4.47;;;;;;;17.81;55.72;100358.00;343553;28;1140;-73
2022/07/17 00:31:35;;;;;;;6.65;4.40;;;;;;;17.78;56.17;100358.13;343776;28;1407;-74
2022/07/17 00:31:47;;;;;;;5.53;4.30;;;;;;;17.79;55.82;100362.47;343334;28;1049;-76
2022/07/17 00:31:59;;;;;;;5.18;4.15;;;;;;;17.78;55.77;100358.97;343747;28;1252;-74
2022/07/17 00:32:11;;;;;;;7.57;4.38;;;;;;;17.77;56.29;100356.44;343981;28;1150;-76
2022/07/17 00:32:23;;;;;;;7.70;4.47;;;;;;;17.77;56.21;100351.19;343521;28;1022;-75
2022/07/17 00:32:36;;;;;;;8.18;4.60;;;;;;;17.76;55.79;100358.19;342772;28;2128;-75
2022/07/17 00:32:48;;;;;;;7.18;4.50;;;;;;;17.74;55.83;100364.47;343715;28;1352;-75
2022/07/17 00:33:00;;;;;;;6.63;4.40;;;;;;;17.72;55.90;100358.44;343570;28;1218;-73
2022/07/17 00:33:12;;;;;;;7.50;4.30;;;;;;;17.73;55.91;100361.00;343682;28;1059;-73
2022/07/17 00:33:24;;;;;;;7.47;4.40;;;;;;;17.72;55.82;100353.19;343644;28;1088;-73
2022/07/17 00:33:35;;;;;;;7.15;4.40;;;;;;;17.73;56.09;100360.16;343640;28;2155;-75
2022/07/17 00:33:48;;;;;;;7.60;4.50;;;;;;;17.72;55.56;100358.44;342588;28;1887;-75
2022/07/17 00:34:00;;;;;;;8.80;4.70;;;;;;;17.73;55.81;100355.75;343384;28;1512;-74
2022/07/17 00:34:12;;;;;;;8.20;4.65;;;;;;;17.73;55.89;100361.00;344187;28;1256;-74
2022/07/17 00:34:24;;;;;;;6.90;4.30;;;;;;;17.74;55.94;100353.97;343684;28;1050;-74
2022/07/17 00:34:36;;;;;;;7.35;4.40;;;;;;;17.73;55.85;100354.91;343275;28;2265;-74
2022/07/17 00:34:48;;;;;;;7.65;4.40;;;;;;;17.72;55.64;100361.06;343501;28;1861;-74
2022/07/17 00:35:00;;;;;;;6.70;4.40;;;;;;;17.71;55.76;100356.75;343570;28;1384;-74
2022/07/17 00:35:12;;;;;;;7.90;4.40;;;;;;;17.72;55.46;100358.44;343852;28;1011;-73
2022/07/17 00:35:31;;;;;;;7.88;4.57;;;;;;;17.69;55.80;100361.25;343670;28;1107;-73
2022/07/17 00:35:43;;;;;;;8.77;4.45;;;;;;;17.69;55.66;100364.72;343509;28;2218;-73
2022/07/17 00:35:55;;;;;;;9.43;4.43;;;;;;;17.70;55.58;100361.16;343171;28;1868;-74
2022/07/17 00:36:07;;;;;;;10.52;4.88;;;;;;;17.72;55.42;100354.03;343480;28;1078;-74
2022/07/17 00:36:19;;;;;;;9.80;4.88;;;;;;;17.72;55.14;100363.72;343890;28;1071;-75
2022/07/17 00:36:31;;;;;;;8.50;4.80;;;;;;;17.72;55.21;100358.44;343455;28;1053;-75
2022/07/17 00:36:43;;;;;;;8.25;4.60;;;;;;;17.75;55.24;100363.56;344649;28;2260;-74
2022/07/17 00:36:55;;;;;;;7.13;4.50;;;;;;;17.73;55.18;100355.75;343994;28;1868;-74
2022/07/17 00:37:07;;;;;;;6.53;4.78;;;;;;;17.72;55.11;100359.28;343559;28;1223;-74
2022/07/17 00:37:19;;;;;;;6.95;4.90;;;;;;;17.68;55.46;100356.91;343815;28;1063;-74
2022/07/17 00:37:38;;;;;;;7.80;4.78;;;;;;;17.69;55.69;100356.84;343027;28;5509;-74
2022/07/17 00:37:51;;;;;;;8.23;4.65;;;;;;;17.68;55.22;100362.16;344775;28;1467;-74
2022/07/17 00:38:03;;;;;;;8.13;4.78;;;;;;;17.68;55.03;100355.13;343342;28;1273;-74
2022/07/17 00:38:15;;;;;;;7.68;4.63;;;;;;;17.68;55.25;100356.91;343414;28;1303;-74
2022/07/17 00:38:30;;;;;;;5.65;4.63;;;;;;;17.65;55.43;100355.28;342479;28;1515;-74
2022/07/17 00:38:42;;;;;;;4.97;4.47;;;;;;;17.66;55.23;100358.75;342672;28;2195;-74
2022/07/17 00:38:54;;;;;;;4.72;4.20;;;;;;;17.63;55.68;100359.78;343149;28;1808;-74
2022/07/17 00:39:06;;;;;;;5.47;4.22;;;;;;;17.59;56.32;100358.22;344983;28;1011;-74
2022/07/17 00:39:18;;;;;;;6.22;4.30;;;;;;;17.57;56.11;100360.94;344203;28;1077;-74
2022/07/17 00:39:31;;;;;;;7.45;4.47;;;;;;;17.57;56.36;100355.69;343648;28;1239;-74
2022/07/17 00:39:43;;;;;;;8.68;4.78;;;;;;;17.57;55.90;100355.69;343460;28;2278;-74
2022/07/17 00:39:56;;;;;;;7.25;4.80;;;;;;;17.58;56.00;100357.34;343658;28;2075;-74
2022/07/17 00:40:11;;;;;;;5.65;4.40;;;;;;;17.56;56.05;100353.97;345263;28;1323;-74
2022/07/17 00:40:24;;;;;;;7.78;4.28;;;;;;;17.55;56.46;100351.44;344914;28;1414;-74
2022/07/17 00:40:36;;;;;;;7.65;4.30;;;;;;;17.56;56.23;100361.00;343325;28;1194;-74
2022/07/17 00:40:48;;;;;;;6.07;4.53;;;;;;;17.54;56.34;100355.81;343098;28;1084;-74
2022/07/17 00:41:00;;;;;;;8.80;4.60;;;;;;;17.55;56.38;100352.28;342795;28;1408;-74
2022/07/17 00:41:14;;;;;;;9.32;4.40;;;;;;;17.56;55.62;100353.13;343753;28;1225;-74
2022/07/17 00:41:26;;;;;;;6.35;4.20;;;;;;;17.57;55.38;100350.41;343716;28;1087;-74
2022/07/17 00:41:39;;;;;;;9.60;4.20;;;;;;;17.56;55.33;100361.00;342817;28;2173;-74
2022/07/17 00:41:52;;;;;;;10.02;4.32;;;;;;;17.54;55.53;100353.19;343534;28;1066;-74
2022/07/17 00:42:05;;;;;;;8.15;4.50;;;;;;;17.53;55.81;100359.38;343167;28;1421;-74
2022/07/17 00:42:18;;;;;;;6.32;4.22;;;;;;;17.52;56.16;100357.66;343488;28;1218;-74
2022/07/17 00:42:31;;;;;;;6.43;4.30;;;;;;;17.52;56.17;100355.03;343610;28;1291;-74
2022/07/17 00:42:44;;;;;;;9.05;4.53;;;;;;;17.52;56.20;100359.44;343525;28;2283;-73
2022/07/17 00:42:56;;;;;;;9.48;4.53;;;;;;;17.51;56.32;100355.97;344207;28;1453;-73
2022/07/17 00:43:08;;;;;;;8.27;4.40;;;;;;;17.52;56.35;100356.81;345133;28;1088;-73
2022/07/17 00:43:20;;;;;;;6.47;4.32;;;;;;;17.50;56.50;100354.28;344320;28;2102;-73
2022/07/17 00:43:32;;;;;;;7.18;4.55;;;;;;;17.52;56.06;100351.56;343725;28;1119;-73
2022/07/17 00:43:46;;;;;;;6.70;4.45;;;;;;;17.53;56.18;100348.03;342802;28;2311;-74
2022/07/17 00:44:11;;;;;;;6.70;4.38;;;;;;;17.54;56.07;100358.44;343421;28;1253;-74
2022/07/17 00:44:26;;;;;;;7.45;4.50;;;;;;;17.51;55.85;100355.97;342289;28;1307;-74
2022/07/17 00:44:40;;;;;;;6.85;4.35;;;;;;;17.52;56.00;100352.41;342264;28;2226;-74
2022/07/17 00:44:52;;;;;;;6.47;4.40;;;;;;;17.51;56.26;100349.88;342417;28;1496;-74
2022/07/17 00:45:04;;;;;;;5.30;4.47;;;;;;;17.53;56.15;100359.38;344866;28;1376;-74
2022/07/17 00:45:17;;;;;;;5.05;4.50;;;;;;;17.52;56.25;100357.66;345254;28;1305;-73
2022/07/17 00:45:31;;;;;;;7.35;4.38;;;;;;;17.52;56.31;100360.28;345326;28;1066;-73
2022/07/17 00:45:43;;;;;;;6.72;4.15;;;;;;;17.53;56.30;100361.16;344657;28;1982;-74
2022/07/17 00:46:00;;;;;;;5.78;4.10;;;;;;;17.53;56.40;100362.00;344346;28;1876;-74
2022/07/17 00:46:14;;;;;;;6.55;4.13;;;;;;;17.52;56.26;100355.03;345089;28;1185;-74
2022/07/17 00:46:26;;;;;;;5.30;4.28;;;;;;;17.53;56.53;100362.00;344886;28;1054;-74
2022/07/17 00:46:38;;;;;;;5.35;4.32;;;;;;;17.53;56.31;100359.38;344455;28;2077;-74
2022/07/17 00:46:51;;;;;;;6.30;4.43;;;;;;;17.51;56.87;100363.88;344686;28;1368;-74
2022/07/17 00:47:03;;;;;;;6.80;4.55;;;;;;;17.53;56.38;100364.63;344879;28;1375;-74
2022/07/17 00:47:18;;;;;;;6.63;4.60;;;;;;;17.54;55.77;100358.44;344833;28;1257;-74
2022/07/17 00:47:30;;;;;;;6.65;4.35;;;;;;;17.55;55.65;100362.78;344926;28;1071;-73
2022/07/17 00:47:52;;;;;;;7.03;4.22;;;;;;;17.57;55.07;100360.94;344507;28;2169;-73
2022/07/17 00:48:08;;;;;;;7.07;4.30;;;;;;;17.57;55.05;100366.19;346024;28;1284;-74
2022/07/17 00:48:21;;;;;;;6.93;4.10;;;;;;;17.57;55.53;100360.94;345983;28;1043;-74
2022/07/17 00:48:33;;;;;;;7.65;3.97;;;;;;;17.57;55.44;100360.94;346032;28;1063;-73
2022/07/17 00:48:45;;;;;;;6.65;4.00;;;;;;;17.54;55.58;100366.31;344639;28;2766;-73
2022/07/17 00:48:57;;;;;;;5.55;3.88;;;;;;;17.53;55.83;100362.00;345509;28;1902;-74
2022/07/17 00:49:09;;;;;;;5.63;3.90;;;;;;;17.54;55.66;100360.22;344996;28;1053;-74
2022/07/17 00:49:21;;;;;;;8.80;4.10;;;;;;;17.55;55.90;100362.78;345193;28;1022;-74
2022/07/17 00:49:33;;;;;;;9.57;4.32;;;;;;;17.55;55.68;100362.78;345457;28;980;-74
2022/07/17 00:49:46;;;;;;;10.07;4.43;;;;;;;17.55;55.91;100361.94;344398;28;2242;-74
2022/07/17 00:49:58;;;;;;;7.88;4.40;;;;;;;17.54;55.51;100366.31;346087;28;1909;-74
2022/07/17 00:50:10;;;;;;;7.45;4.50;;;;;;;17.51;55.66;100366.50;345581;28;1183;-73
2022/07/17 00:50:25;;;;;;;7.63;4.43;;;;;;;17.51;55.61;100366.50;345033;28;1102;-73
2022/07/17 00:50:39;;;;;;;5.25;4.03;;;;;;;17.51;54.72;100360.41;344429;28;2038;-74
2022/07/17 00:50:52;;;;;;;5.43;4.13;;;;;;;17.50;55.79;100364.78;344150;28;1534;-74
2022/07/17 00:51:07;;;;;;;5.38;4.22;;;;;;;17.48;55.31;100356.13;345047;28;1196;-74
2022/07/17 00:51:19;;;;;;;5.53;4.10;;;;;;;17.47;56.23;100353.59;345127;28;1063;-74
2022/07/17 00:51:32;;;;;;;6.07;3.92;;;;;;;17.49;55.76;100363.09;344956;28;1241;-74
2022/07/17 00:51:44;;;;;;;6.40;4.10;;;;;;;17.47;55.89;100359.69;344194;28;2259;-73
2022/07/17 00:51:56;;;;;;;6.57;4.38;;;;;;;17.48;55.95;100364.00;344475;28;1205;-74
2022/07/17 00:52:10;;;;;;;6.65;4.28;;;;;;;17.50;55.36;100364.78;344844;28;1127;-74
2022/07/17 00:52:22;;;;;;;6.40;4.18;;;;;;;17.49;55.08;100363.09;343923;28;1176;-74
2022/07/17 00:52:34;;;;;;;5.30;4.20;;;;;;;17.50;55.14;100362.16;343376;28;1106;-74
2022/07/17 00:52:47;;;;;;;4.72;4.10;;;;;;;17.49;55.42;100362.25;344016;28;1802;-74
2022/07/17 00:53:01;;;;;;;4.47;4.05;;;;;;;17.49;56.01;100363.09;344079;28;1588;-74
2022/07/17 00:53:13;;;;;;;5.63;4.15;;;;;;;17.48;55.54;100358.75;344942;28;1185;-75
2022/07/17 00:53:27;;;;;;;6.05;4.03;;;;;;;17.48;55.96;100366.63;345013;28;1331;-75
2022/07/17 00:53:42;;;;;;;5.97;4.10;;;;;;;17.46;56.08;100362.38;344583;28;2182;-75
2022/07/17 00:53:55;;;;;;;8.73;4.05;;;;;;;17.46;55.89;100363.22;344402;28;2157;-74
2022/07/17 00:54:07;;;;;;;11.57;4.20;;;;;;;17.44;55.67;100353.72;343595;28;1082;-74
2022/07/17 00:54:22;;;;;;;9.80;4.30;;;;;;;17.44;55.92;100359.84;343531;28;2070;-74
2022/07/17 00:54:38;;;;;;;5.70;4.15;;;;;;;17.43;55.92;100357.31;344312;28;1635;-74
2022/07/17 00:54:52;;;;;;;5.10;4.05;;;;;;;17.39;55.81;100364.47;345958;28;1254;-74
2022/07/17 00:55:17;;;;;;;7.03;3.92;;;;;;;17.33;55.53;100357.75;343888;28;2203;-73
2022/07/17 00:55:49;;;;;;;8.40;4.20;;;;;;;17.34;55.91;100358.59;344691;28;1426;-74
2022/07/17 00:56:04;;;;;;;6.28;4.00;;;;;;;17.34;56.18;100354.22;344551;28;1153;-74
2022/07/17 00:56:17;;;;;;;5.97;4.00;;;;;;;17.32;56.05;100360.44;343448;28;1295;-74
2022/07/17 00:56:36;;;;;;;5.65;3.75;;;;;;;17.29;56.06;100355.34;343459;28;1047;-74
2022/07/17 00:56:48;;;;;;;4.72;3.78;;;;;;;17.29;56.11;100350.94;342883;28;1387;-73
2022/07/17 00:57:05;;;;;;;5.55;4.05;;;;;;;17.25;55.92;100348.56;343255;28;1310;-72
2022/07/17 00:57:19;;;;;;;5.47;4.00;;;;;;;17.26;55.69;100350.22;343397;28;1214;-73
2022/07/17 00:57:31;;;;;;;5.93;4.00;;;;;;;17.25;55.52;100359.06;343304;28;1245;-72
2022/07/17 00:57:46;;;;;;;6.03;4.07;;;;;;;17.22;55.63;100353.94;342275;28;2241;-73
2022/07/17 00:58:02;;;;;;;5.63;4.05;;;;;;;17.21;56.01;100352.25;342658;28;1790;-74
2022/07/17 00:58:25;;;;;;;6.40;4.05;;;;;;;17.20;56.44;100354.00;344058;28;988;-74
2022/07/17 00:58:38;;;;;;;8.10;4.20;;;;;;;17.22;56.09;100353.94;344853;28;1051;-74
2022/07/17 00:58:51;;;;;;;6.85;4.05;;;;;;;17.24;55.96;100359.97;344389;28;1850;-75
2022/07/17 00:59:03;;;;;;;5.72;4.10;;;;;;;17.24;55.81;100354.72;344248;28;1909;-74
2022/07/17 00:59:18;;;;;;;7.45;4.15;;;;;;;17.21;55.78;100360.13;345039;28;1059;-74
2022/07/17 00:59:32;;;;;;;8.77;3.97;;;;;;;17.19;55.68;100354.09;345202;28;1062;-74
2022/07/17 00:59:44;;;;;;;7.10;4.10;;;;;;;17.15;56.00;100359.50;344039;28;2039;-74
2022/07/17 00:59:57;;;;;;;4.82;4.00;;;;;;;17.14;56.32;100352.56;344497;28;1788;-74
2022/07/17 01:00:10;;;;;;;4.43;3.90;;;;;;;17.14;56.58;100360.44;343558;28;1039;-75
2022/07/17 01:00:23;;;;;;;4.75;3.80;;;;;;;17.14;56.56;100357.81;343336;28;1284;-75
2022/07/17 01:00:35;;;;;;;5.15;3.72;;;;;;;17.12;56.60;100357.03;342253;28;1242;-75
2022/07/17 01:00:49;;;;;;;5.22;3.92;;;;;;;17.12;56.86;100359.66;342860;28;1804;-75
2022/07/17 01:01:06;;;;;;;7.10;4.20;;;;;;;17.12;56.89;100364.03;342920;28;1283;-75
2022/07/17 01:01:18;;;;;;;7.68;4.22;;;;;;;17.13;56.61;100366.59;343612;28;1064;-74
2022/07/17 01:01:31;;;;;;;5.82;4.40;;;;;;;17.13;56.48;100358.72;343368;28;1164;-74